Time;durP1;ratioP1;P1;durP2;ratioP2;P2;SDS_P1;SDS_P2;PMS_P1;PMS_P2;Temp;Humidity;BMP_temperature;BMP_pressure;BME280_temperature;BME280_humidity;BME280_pressure;Samples;Min_cycle;Max_cycle;Signal;HPM_P1;HPM_P2
2021/10/07 00:02:19;;;;;;;0.98;0.30;;;9.20;98.20;;;;;;5024399;28;20014;-77
2021/10/07 00:04:45;;;;;;;0.38;0.35;;;9.10;98.20;;;;;;5014874;28;20096;-76
2021/10/07 00:07:11;;;;;;;0.80;0.45;;;9.20;98.20;;;;;;4992462;28;20113;-77
2021/10/07 00:09:38;;;;;;;0.90;0.40;;;9.20;98.30;;;;;;4992101;28;20080;-77
2021/10/07 00:12:05;;;;;;;1.20;0.43;;;9.20;98.30;;;;;;4992148;28;20026;-77
2021/10/07 00:14:31;;;;;;;2.70;0.40;;;9.20;98.30;;;;;;4975413;28;20030;-76
2021/10/07 00:16:57;;;;;;;1.48;0.50;;;9.20;98.30;;;;;;4992482;28;20049;-76
2021/10/07 00:19:23;;;;;;;0.60;0.38;;;9.20;98.30;;;;;;5003989;28;20033;-76
2021/10/07 00:21:49;;;;;;;1.58;0.50;;;9.20;98.40;;;;;;4994069;28;20025;-76
2021/10/07 00:24:14;;;;;;;0.47;0.47;;;9.20;98.40;;;;;;5010294;28;20022;-76
2021/10/07 00:26:44;;;;;;;3.47;0.55;;;9.20;98.50;;;;;;5009823;28;20121;-76
2021/10/07 00:32:20;;;;;;;0.90;0.60;;;9.10;98.60;;;;;;5021694;28;20036;-76
2021/10/07 00:39:58;;;;;;;1.10;0.57;;;9.10;98.90;;;;;;4992148;28;19917;-76
2021/10/07 00:42:24;;;;;;;0.32;0.32;;;9.20;98.90;;;;;;4991814;28;20022;-76
2021/10/07 00:44:50;;;;;;;1.08;0.50;;;9.20;99.00;;;;;;4973890;28;20054;-76
2021/10/07 00:47:17;;;;;;;0.85;0.50;;;9.20;99.10;;;;;;4982744;28;20053;-75
2021/10/07 00:49:43;;;;;;;0.85;0.50;;;9.20;99.20;;;;;;5011091;28;20471;-75
2021/10/07 00:52:15;;;;;;;1.67;0.45;;;9.20;99.30;;;;;;5011517;28;20051;-77
2021/10/07 00:54:41;;;;;;;1.88;0.65;;;9.20;99.20;;;;;;5009207;28;20366;-77
2021/10/07 00:57:09;;;;;;;0.60;0.40;;;9.30;99.20;;;;;;4992452;28;20041;-76
2021/10/07 00:59:34;;;;;;;0.85;0.47;;;9.30;99.20;;;;;;4991607;28;20049;-76
2021/10/07 01:02:07;;;;;;;0.40;0.40;;;9.30;99.10;;;;;;5020293;28;20429;-77
2021/10/07 01:04:33;;;;;;;0.77;0.38;;;9.30;99.10;;;;;;5010544;28;20083;-76
2021/10/07 01:07:00;;;;;;;0.40;0.40;;;9.40;99.10;;;;;;4990929;28;20026;-76
2021/10/07 01:09:28;;;;;;;0.93;0.45;;;9.40;99.10;;;;;;4992285;28;20030;-76
2021/10/07 01:11:54;;;;;;;0.40;0.40;;;9.40;99.00;;;;;;4991403;28;20035;-76
2021/10/07 01:14:36;;;;;;;1.00;0.60;;;9.40;99.00;;;;;;4991544;28;20052;-76
2021/10/07 01:17:02;;;;;;;1.00;0.65;;;9.40;99.00;;;;;;4991924;28;20031;-76
2021/10/07 01:19:28;;;;;;;0.73;0.68;;;9.50;99.00;;;;;;5009059;28;20099;-76
2021/10/07 01:21:57;;;;;;;0.40;0.40;;;9.50;99.00;;;;;;4994829;28;20030;-76
2021/10/07 01:24:23;;;;;;;2.55;1.05;;;9.50;98.90;;;;;;5010519;28;20386;-76
2021/10/07 01:26:49;;;;;;;0.65;0.43;;;9.50;98.80;;;;;;5011579;28;20045;-76
2021/10/07 01:29:15;;;;;;;0.70;0.52;;;9.50;98.90;;;;;;5007839;28;20451;-75
2021/10/07 01:31:40;;;;;;;3.90;1.15;;;9.50;98.90;;;;;;5016627;28;20033;-76
2021/10/07 01:34:06;;;;;;;0.80;0.40;;;9.50;98.80;;;;;;5028850;28;20018;-75
2021/10/07 01:36:32;;;;;;;1.52;0.50;;;9.50;98.60;;;;;;4992465;28;20026;-76
2021/10/07 01:38:57;;;;;;;0.73;0.65;;;9.50;98.60;;;;;;4977260;28;20019;-76
2021/10/07 01:41:23;;;;;;;0.43;0.40;;;9.50;98.60;;;;;;4995570;28;20030;-76
2021/10/07 01:43:55;;;;;;;0.40;0.40;;;9.50;98.70;;;;;;4994704;28;20030;-77
2021/10/07 01:46:21;;;;;;;2.45;0.70;;;9.50;98.80;;;;;;4995062;28;20023;-77
2021/10/07 01:48:47;;;;;;;1.77;0.60;;;9.50;98.80;;;;;;4994870;28;20034;-75
2021/10/07 01:51:13;;;;;;;0.40;0.40;;;9.50;98.80;;;;;;5006873;28;20026;-76
2021/10/07 01:53:38;;;;;;;1.13;0.45;;;9.50;98.70;;;;;;5013600;28;20049;-77
2021/10/07 01:56:05;;;;;;;0.43;0.43;;;9.60;98.70;;;;;;5024329;28;20486;-75
2021/10/07 01:58:30;;;;;;;0.30;0.30;;;9.60;98.70;;;;;;5006366;28;20026;-76
2021/10/07 02:00:56;;;;;;;0.30;0.30;;;9.60;98.70;;;;;;5015838;28;20030;-77
2021/10/07 02:03:22;;;;;;;0.85;0.70;;;9.60;98.70;;;;;;5020907;28;20455;-76
2021/10/07 02:05:47;;;;;;;1.00;0.57;;;9.60;98.70;;;;;;5000252;28;20049;-77
2021/10/07 02:08:13;;;;;;;1.20;0.68;;;9.60;98.80;;;;;;4994467;28;20117;-76
2021/10/07 02:10:39;;;;;;;1.20;0.60;;;9.50;98.70;;;;;;4994968;28;20066;-76
2021/10/07 02:13:04;;;;;;;0.90;0.60;;;9.50;98.80;;;;;;4977700;28;20038;-76
2021/10/07 02:15:30;;;;;;;0.80;0.80;;;9.50;98.90;;;;;;4994523;28;20030;-76
2021/10/07 02:17:56;;;;;;;1.48;0.60;;;9.50;98.90;;;;;;4993539;28;20077;-76
2021/10/07 02:20:21;;;;;;;1.25;0.90;;;9.60;99.20;;;;;;5001201;28;20053;-77
2021/10/07 02:22:47;;;;;;;2.10;0.60;;;9.50;98.90;;;;;;5011116;28;20030;-76
2021/10/07 02:25:13;;;;;;;1.98;0.57;;;9.50;99.10;;;;;;5012856;28;20022;-76
2021/10/07 02:27:39;;;;;;;0.63;0.63;;;9.50;99.10;;;;;;5013839;28;20030;-76
2021/10/07 02:30:08;;;;;;;1.15;0.70;;;9.50;99.30;;;;;;5016146;28;20052;-75
2021/10/07 02:32:33;;;;;;;0.85;0.65;;;9.50;99.40;;;;;;5014958;28;20153;-76
2021/10/07 02:34:59;;;;;;;1.30;0.63;;;9.60;99.50;;;;;;4994290;28;20128;-77
2021/10/07 02:37:25;;;;;;;0.85;0.57;;;9.60;99.50;;;;;;4994126;28;20075;-77
2021/10/07 02:39:50;;;;;;;0.82;0.50;;;9.60;99.50;;;;;;4976290;28;20118;-77
2021/10/07 02:42:16;;;;;;;2.42;0.95;;;9.60;99.50;;;;;;5008980;28;20036;-76
2021/10/07 02:44:42;;;;;;;1.00;0.55;;;9.70;99.50;;;;;;5012036;28;20501;-77
2021/10/07 02:47:07;;;;;;;1.52;0.93;;;9.60;99.40;;;;;;4993428;28;20026;-76
2021/10/07 02:49:33;;;;;;;1.63;0.60;;;9.60;99.40;;;;;;4992540;28;20109;-76
2021/10/07 02:51:59;;;;;;;1.48;0.45;;;9.60;99.50;;;;;;4994531;28;20155;-75
2021/10/07 02:54:24;;;;;;;0.70;0.60;;;9.60;99.60;;;;;;4992768;28;20038;-75
2021/10/07 02:56:51;;;;;;;0.88;0.65;;;9.60;99.60;;;;;;4975648;28;20356;-76
2021/10/07 02:59:17;;;;;;;1.65;0.68;;;9.60;99.60;;;;;;4993312;28;20069;-76
2021/10/07 03:01:43;;;;;;;0.82;0.65;;;9.60;99.60;;;;;;5016018;28;20022;-75
2021/10/07 03:04:08;;;;;;;1.23;0.60;;;9.60;99.70;;;;;;4993002;28;20365;-75
2021/10/07 03:06:34;;;;;;;1.63;0.60;;;9.60;99.70;;;;;;4993103;28;20439;-75
2021/10/07 03:09:00;;;;;;;0.60;0.40;;;9.60;99.80;;;;;;4993532;28;20026;-76
2021/10/07 03:11:25;;;;;;;0.40;0.40;;;9.60;99.90;;;;;;4993637;28;20423;-76
2021/10/07 03:13:51;;;;;;;0.80;0.50;;;9.60;99.90;;;;;;4993926;28;20483;-76
2021/10/07 03:16:17;;;;;;;1.05;0.30;;;9.60;99.90;;;;;;4975092;28;20067;-76
2021/10/07 03:18:42;;;;;;;0.30;0.30;;;9.60;99.90;;;;;;4993541;28;20026;-76
2021/10/07 03:21:08;;;;;;;0.45;0.45;;;9.60;99.90;;;;;;4975412;28;20538;-76
2021/10/07 03:23:34;;;;;;;1.67;0.60;;;9.60;99.90;;;;;;5000493;28;20029;-76
2021/10/07 03:25:59;;;;;;;1.20;0.60;;;9.60;99.90;;;;;;5011985;28;20053;-77
2021/10/07 03:28:25;;;;;;;0.60;0.38;;;9.70;99.90;;;;;;4994658;28;20034;-76
2021/10/07 03:30:51;;;;;;;0.47;0.47;;;9.60;99.90;;;;;;5020733;28;20151;-76
2021/10/07 03:33:17;;;;;;;0.52;0.45;;;9.70;99.90;;;;;;5021505;28;20021;-76
2021/10/07 03:35:43;;;;;;;1.30;0.95;;;9.70;99.90;;;;;;4992897;28;20038;-75
2021/10/07 03:38:08;;;;;;;0.68;0.50;;;9.70;99.90;;;;;;4974951;28;20026;-76
2021/10/07 03:40:34;;;;;;;1.27;0.70;;;9.70;99.70;;;;;;4992567;28;20057;-77
2021/10/07 03:43:00;;;;;;;0.98;0.63;;;9.70;99.70;;;;;;4992665;28;20458;-75
2021/10/07 03:45:26;;;;;;;1.77;0.60;;;9.70;99.70;;;;;;5005245;28;20109;-76
2021/10/07 03:47:51;;;;;;;0.98;0.55;;;9.70;99.80;;;;;;5011785;28;20026;-77
2021/10/07 03:50:18;;;;;;;0.45;0.45;;;9.70;99.80;;;;;;5011913;28;20029;-77
2021/10/07 03:52:43;;;;;;;0.50;0.50;;;9.70;99.80;;;;;;5011313;28;20055;-76
2021/10/07 03:55:09;;;;;;;0.57;0.32;;;9.70;99.80;;;;;;5010646;28;20104;-76
2021/10/07 03:57:35;;;;;;;0.80;0.47;;;9.70;99.80;;;;;;5011617;28;20093;-76
2021/10/07 04:00:01;;;;;;;0.80;0.52;;;9.80;99.80;;;;;;4994304;28;20103;-76
2021/10/07 04:02:26;;;;;;;0.63;0.40;;;9.80;99.70;;;;;;5023215;28;20048;-77
2021/10/07 04:04:52;;;;;;;0.52;0.47;;;9.90;99.60;;;;;;5015550;28;20469;-77
2021/10/07 04:07:18;;;;;;;0.65;0.50;;;9.80;99.50;;;;;;5011932;28;20041;-76
2021/10/07 04:09:43;;;;;;;0.63;0.50;;;9.90;99.40;;;;;;5012184;28;20046;-76
2021/10/07 04:12:09;;;;;;;1.38;0.75;;;9.90;98.90;;;;;;5012841;28;20032;-76
2021/10/07 04:14:35;;;;;;;1.98;0.60;;;9.90;98.70;;;;;;5011617;28;20044;-75
2021/10/07 04:17:01;;;;;;;3.15;0.88;;;9.90;98.90;;;;;;4993952;28;20039;-76
2021/10/07 04:19:27;;;;;;;1.35;0.60;;;9.80;98.80;;;;;;4992805;28;20018;-77
2021/10/07 04:21:52;;;;;;;1.30;0.60;;;9.80;98.80;;;;;;5012575;28;20455;-76
2021/10/07 04:24:18;;;;;;;1.08;0.55;;;9.80;98.90;;;;;;5012688;28;20026;-76
2021/10/07 04:26:44;;;;;;;1.52;0.55;;;9.80;99.10;;;;;;5006663;28;20030;-76
2021/10/07 04:29:10;;;;;;;2.75;0.70;;;9.80;99.20;;;;;;4992933;28;20026;-76
2021/10/07 04:31:37;;;;;;;1.50;0.70;;;9.80;99.20;;;;;;5018093;28;20045;-77
2021/10/07 04:34:03;;;;;;;1.40;0.68;;;9.80;99.30;;;;;;5005997;28;20019;-77
2021/10/07 04:36:29;;;;;;;0.65;0.60;;;9.70;99.30;;;;;;5009832;28;20034;-76
2021/10/07 04:38:55;;;;;;;2.53;1.05;;;9.80;99.40;;;;;;5010762;28;20033;-76
2021/10/07 04:41:21;;;;;;;4.13;0.90;;;9.80;99.30;;;;;;5012172;28;20129;-76
2021/10/07 04:43:46;;;;;;;1.42;0.63;;;9.80;99.30;;;;;;5012289;28;20049;-76
2021/10/07 04:46:12;;;;;;;1.98;0.50;;;9.70;99.40;;;;;;5007243;28;20022;-76
2021/10/07 04:48:38;;;;;;;4.55;0.85;;;9.70;99.40;;;;;;4994187;28;20069;-76
2021/10/07 04:51:04;;;;;;;0.70;0.70;;;9.70;99.50;;;;;;4991827;28;20372;-76
2021/10/07 04:53:29;;;;;;;2.90;0.82;;;9.70;99.60;;;;;;4975836;28;20038;-76
2021/10/07 04:55:55;;;;;;;0.98;0.60;;;9.70;99.50;;;;;;5008886;28;20073;-76
2021/10/07 04:58:24;;;;;;;1.45;0.75;;;9.70;99.60;;;;;;5009937;28;20086;-76
2021/10/07 05:00:51;;;;;;;2.33;1.05;;;9.70;99.80;;;;;;5019999;28;20018;-76
2021/10/07 05:03:17;;;;;;;2.75;0.73;;;9.70;99.80;;;;;;5024652;28;20374;-75
2021/10/07 05:05:43;;;;;;;1.95;0.68;;;9.70;99.90;;;;;;4997424;28;20030;-75
2021/10/07 05:08:09;;;;;;;1.20;0.75;;;9.70;99.90;;;;;;4992133;28;20034;-76
2021/10/07 05:10:35;;;;;;;1.38;1.23;;;9.70;99.90;;;;;;5009561;28;20026;-76
2021/10/07 05:13:02;;;;;;;1.58;0.85;;;9.70;99.90;;;;;;5016507;28;20034;-76
2021/10/07 05:15:28;;;;;;;3.90;0.82;;;9.70;99.90;;;;;;5015700;28;20376;-76
2021/10/07 05:17:53;;;;;;;1.40;0.50;;;9.70;99.90;;;;;;5015812;28;20026;-76
2021/10/07 05:20:20;;;;;;;0.57;0.57;;;9.60;99.90;;;;;;5013807;28;20034;-76
2021/10/07 05:22:46;;;;;;;1.70;0.52;;;9.70;99.90;;;;;;5016199;28;20026;-76
2021/10/07 05:25:12;;;;;;;0.93;0.70;;;9.70;99.90;;;;;;5009209;28;20026;-76
2021/10/07 05:27:38;;;;;;;0.88;0.63;;;9.70;99.90;;;;;;4995936;28;20472;-76
2021/10/07 05:30:07;;;;;;;1.25;0.80;;;9.80;99.90;;;;;;5003395;28;20056;-76
2021/10/07 05:32:33;;;;;;;1.83;0.80;;;9.80;99.90;;;;;;5020210;28;20113;-76
2021/10/07 05:34:59;;;;;;;4.15;0.80;;;9.80;99.90;;;;;;5002837;28;20034;-76
2021/10/07 05:37:27;;;;;;;1.45;0.90;;;9.80;99.90;;;;;;4995782;28;20034;-76
2021/10/07 05:39:52;;;;;;;2.22;0.90;;;9.90;99.90;;;;;;4996083;28;20479;-76
2021/10/07 05:42:18;;;;;;;5.15;1.10;;;9.80;99.90;;;;;;4997243;28;20040;-76
2021/10/07 05:44:44;;;;;;;1.30;1.00;;;9.80;99.90;;;;;;5013237;28;20021;-76
2021/10/07 05:47:10;;;;;;;2.53;0.98;;;9.80;99.90;;;;;;5012924;28;20026;-75
2021/10/07 05:49:36;;;;;;;1.02;0.85;;;9.80;99.90;;;;;;5014279;28;20057;-76
2021/10/07 05:52:02;;;;;;;2.15;1.15;;;9.80;99.90;;;;;;4979324;28;20105;-76
2021/10/07 05:54:27;;;;;;;3.63;1.25;;;9.70;99.90;;;;;;5029415;23;20034;-77
2021/10/07 05:56:53;;;;;;;2.80;1.13;;;9.80;99.90;;;;;;5019000;28;20042;-78
2021/10/07 05:59:19;;;;;;;3.13;1.10;;;9.80;99.90;;;;;;4999602;28;20488;-82
2021/10/07 06:01:44;;;;;;;1.80;1.17;;;9.80;99.90;;;;;;5003131;28;20053;-82
2021/10/07 06:04:10;;;;;;;0.75;0.68;;;9.80;99.90;;;;;;5018976;28;20030;-81
2021/10/07 06:06:36;;;;;;;1.77;0.90;;;9.80;99.90;;;;;;4984806;28;20022;-83
2021/10/07 07:02:58;;;;;;;3.75;2.10;;;10.90;96.60;;;;;;4998226;28;20029;-83
2021/10/07 07:05:26;;;;;;;3.60;1.67;;;10.90;96.40;;;;;;4988469;28;20047;-82
2021/10/07 07:07:53;;;;;;;2.53;1.30;;;10.90;96.60;;;;;;4979972;28;20027;-82
2021/10/07 07:10:19;;;;;;;2.65;1.60;;;10.90;96.80;;;;;;4980334;28;20022;-82
2021/10/07 07:12:46;;;;;;;2.85;1.50;;;10.90;96.90;;;;;;4981587;28;20399;-83
2021/10/07 07:15:13;;;;;;;5.88;1.50;;;11.00;96.90;;;;;;4981951;28;20046;-82
2021/10/07 07:17:39;;;;;;;3.92;2.05;;;11.10;96.10;;;;;;4983789;28;20464;-83
2021/10/07 07:20:05;;;;;;;2.17;1.42;;;11.20;96.20;;;;;;4988041;28;20022;-81
2021/10/07 07:22:39;;;;;;;6.20;1.88;;;11.20;95.80;;;;;;5002183;28;20023;-82
2021/10/07 07:25:06;;;;;;;3.28;2.13;;;11.30;95.50;;;;;;4986036;28;20034;-82
2021/10/07 07:27:32;;;;;;;3.30;1.75;;;11.30;95.90;;;;;;4986177;28;20034;-81
2021/10/07 07:29:57;;;;;;;4.35;2.60;;;11.30;95.70;;;;;;4995303;28;20027;-80
2021/10/07 07:32:23;;;;;;;2.00;1.80;;;11.40;95.20;;;;;;5015039;28;20026;-81
2021/10/07 07:34:49;;;;;;;4.07;1.80;;;11.40;95.20;;;;;;4980572;28;20034;-82
2021/10/07 07:37:15;;;;;;;3.15;1.45;;;11.30;95.10;;;;;;4982235;28;20022;-83
2021/10/07 07:39:41;;;;;;;3.00;1.40;;;11.20;95.10;;;;;;4965156;28;20026;-80
2021/10/07 07:42:07;;;;;;;4.45;1.73;;;11.20;95.60;;;;;;4981080;28;20117;-80
2021/10/07 07:44:32;;;;;;;3.38;1.73;;;11.20;95.70;;;;;;4982754;28;20109;-82
2021/10/07 07:46:58;;;;;;;2.45;1.63;;;11.10;95.50;;;;;;4972515;28;20034;-82
2021/10/07 07:49:24;;;;;;;3.67;1.85;;;11.10;95.90;;;;;;4963969;28;20027;-83
2021/10/07 07:51:50;;;;;;;6.32;1.98;;;11.20;95.50;;;;;;4981540;28;20093;-83
2021/10/07 07:54:17;;;;;;;3.65;1.52;;;11.20;95.70;;;;;;4981639;28;20035;-83
2021/10/07 07:56:43;;;;;;;3.83;2.03;;;11.20;95.70;;;;;;4981006;28;20121;-83
2021/10/07 07:59:09;;;;;;;4.05;1.50;;;11.30;95.60;;;;;;4981775;28;20037;-83
2021/10/07 08:01:39;;;;;;;4.93;1.52;;;11.40;95.60;;;;;;4989899;28;20476;-80
2021/10/07 08:04:06;;;;;;;3.90;1.75;;;11.30;95.20;;;;;;4983637;28;20113;-81
2021/10/07 08:06:33;;;;;;;3.55;1.70;;;11.20;95.50;;;;;;4980566;28;20069;-80
2021/10/07 08:09:00;;;;;;;4.22;2.13;;;11.10;95.60;;;;;;4981898;28;20026;-82
2021/10/07 08:11:26;;;;;;;2.65;1.55;;;11.20;96.10;;;;;;4964153;28;20053;-82
2021/10/07 08:13:51;;;;;;;3.80;1.77;;;11.30;96.00;;;;;;4965489;28;20058;-81
2021/10/07 08:16:17;;;;;;;3.17;1.60;;;11.30;95.80;;;;;;4963285;28;20038;-83
2021/10/07 08:18:44;;;;;;;3.60;1.63;;;11.50;95.70;;;;;;4981562;28;20054;-83
2021/10/07 08:21:10;;;;;;;3.83;1.73;;;11.70;95.30;;;;;;4981692;28;20443;-81
2021/10/07 08:23:37;;;;;;;3.33;2.03;;;11.80;94.20;;;;;;4982578;28;20085;-82
2021/10/07 08:26:04;;;;;;;2.45;1.70;;;11.80;94.30;;;;;;4983450;28;20035;-82
2021/10/07 08:28:30;;;;;;;5.80;1.80;;;11.80;94.20;;;;;;4982022;28;20114;-82
2021/10/07 08:30:56;;;;;;;5.43;2.20;;;11.90;94.40;;;;;;4980620;28;20081;-82
2021/10/07 08:33:21;;;;;;;5.18;2.03;;;11.90;94.20;;;;;;4981277;28;20110;-82
2021/10/07 08:35:49;;;;;;;4.07;2.10;;;12.00;93.60;;;;;;4982671;28;20150;-83
2021/10/07 08:38:15;;;;;;;2.85;1.50;;;12.10;93.70;;;;;;4980839;28;20030;-84
2021/10/07 08:40:41;;;;;;;4.47;1.60;;;12.30;93.80;;;;;;4982145;28;20041;-82
2021/10/07 08:43:07;;;;;;;2.95;2.15;;;12.50;93.30;;;;;;4982015;28;20062;-82
2021/10/07 08:45:33;;;;;;;1.90;1.58;;;12.60;92.10;;;;;;4980699;28;20074;-84
2021/10/07 08:47:59;;;;;;;2.83;1.20;;;12.70;92.10;;;;;;4986141;28;20042;-79
2021/10/07 08:50:26;;;;;;;6.35;2.55;;;12.90;91.90;;;;;;4997265;28;20031;-78
2021/10/07 08:52:52;;;;;;;3.88;2.20;;;12.90;91.30;;;;;;4987616;28;20540;-83
2021/10/07 08:55:18;;;;;;;5.55;2.53;;;12.90;91.00;;;;;;4982185;28;20057;-82
2021/10/07 08:57:44;;;;;;;4.05;2.15;;;12.90;90.60;;;;;;4982133;28;20014;-82
2021/10/07 09:00:13;;;;;;;5.93;2.80;;;12.70;91.00;;;;;;4972791;28;20099;-82
2021/10/07 09:02:39;;;;;;;5.45;2.30;;;12.60;90.90;;;;;;5003146;28;20459;-82
2021/10/07 09:05:20;;;;;;;2.17;1.60;;;12.60;91.50;;;;;;4991923;28;20117;-80
2021/10/07 09:08:06;;;;;;;2.15;1.30;;;12.50;91.40;;;;;;4990394;28;20027;-79
2021/10/07 09:10:39;;;;;;;2.63;1.77;;;12.50;91.70;;;;;;4996169;28;20039;-79
2021/10/07 09:13:13;;;;;;;3.85;1.80;;;12.70;91.80;;;;;;4979004;28;20033;-80
2021/10/07 09:15:59;;;;;;;1.90;1.10;;;12.80;90.80;;;;;;4993997;28;20022;-83
2021/10/07 09:18:27;;;;;;;4.18;2.00;;;12.70;89.10;;;;;;4983046;28;20026;-82
2021/10/07 09:20:54;;;;;;;2.97;1.73;;;12.70;90.00;;;;;;4963692;28;20054;-82
2021/10/07 09:23:31;;;;;;;3.15;1.92;;;12.50;90.70;;;;;;4981159;28;20025;-82
2021/10/07 09:26:12;;;;;;;2.58;1.70;;;12.40;91.10;;;;;;4979748;28;20038;-83
2021/10/07 09:28:50;;;;;;;2.90;1.58;;;12.20;91.60;;;;;;4979388;28;20071;-81
2021/10/07 09:31:24;;;;;;;2.72;1.60;;;12.20;92.20;;;;;;4994854;28;20034;-83
2021/10/07 09:34:02;;;;;;;3.45;1.73;;;12.10;92.40;;;;;;4964600;28;20073;-83
2021/10/07 09:36:30;;;;;;;2.38;1.52;;;12.10;92.10;;;;;;4981329;28;20042;-83
2021/10/07 09:38:57;;;;;;;2.78;1.65;;;12.10;92.40;;;;;;4963613;28;20058;-83
2021/10/07 09:41:30;;;;;;;2.85;1.48;;;12.10;92.60;;;;;;4981005;28;20037;-83
2021/10/07 09:44:00;;;;;;;2.15;1.50;;;12.10;92.40;;;;;;4981154;28;20023;-82
2021/10/07 09:46:39;;;;;;;5.30;2.03;;;12.10;92.90;;;;;;4983076;28;20023;-82
2021/10/07 09:49:05;;;;;;;3.70;1.70;;;12.20;93.20;;;;;;4980610;28;20049;-82
2021/10/07 09:51:43;;;;;;;4.32;2.00;;;12.30;93.10;;;;;;4981565;28;20031;-84
2021/10/07 09:54:09;;;;;;;4.03;2.17;;;12.30;93.30;;;;;;4972266;28;20039;-83
2021/10/07 09:56:35;;;;;;;5.32;2.10;;;12.30;93.10;;;;;;4981957;28;20081;-83
2021/10/07 09:59:09;;;;;;;3.30;1.77;;;12.40;92.80;;;;;;4983609;28;20031;-83
2021/10/07 10:01:37;;;;;;;2.53;2.08;;;12.60;93.40;;;;;;4997654;28;20018;-82
2021/10/07 10:04:03;;;;;;;3.58;1.52;;;12.70;92.70;;;;;;5022790;28;20023;-81
2021/10/07 10:06:30;;;;;;;2.92;2.47;;;12.80;92.60;;;;;;4984263;28;20314;-81
2021/10/07 10:08:56;;;;;;;5.43;1.80;;;13.10;92.70;;;;;;4984653;28;20030;-82
2021/10/07 10:11:22;;;;;;;4.00;2.40;;;13.30;92.00;;;;;;4984711;28;20022;-83
2021/10/07 10:13:49;;;;;;;5.50;2.22;;;13.50;91.30;;;;;;4984334;28;20037;-83
2021/10/07 10:16:16;;;;;;;6.95;2.00;;;13.60;91.10;;;;;;4985728;28;20030;-82
2021/10/07 10:18:51;;;;;;;2.40;1.80;;;13.70;91.10;;;;;;4984529;28;20047;-80
2021/10/07 10:21:17;;;;;;;1.83;1.55;;;13.70;89.40;;;;;;4986076;28;20019;-78
2021/10/07 10:23:44;;;;;;;2.33;2.05;;;13.60;89.30;;;;;;4997517;28;20046;-80
2021/10/07 10:26:10;;;;;;;7.65;2.67;;;13.60;90.70;;;;;;4992981;28;20026;-82
2021/10/07 10:28:42;;;;;;;3.42;1.70;;;13.40;90.90;;;;;;4989036;28;20027;-82
2021/10/07 10:31:10;;;;;;;6.15;2.90;;;13.20;91.30;;;;;;4994959;28;20053;-81
2021/10/07 10:33:39;;;;;;;4.30;2.45;;;13.10;90.80;;;;;;4995157;28;20097;-81
2021/10/07 10:36:33;;;;;;;2.22;2.05;;;13.20;91.20;;;;;;4974914;28;20023;-81
2021/10/07 10:39:14;;;;;;;2.03;1.73;;;13.20;91.50;;;;;;4991236;28;20102;-81
2021/10/07 10:41:49;;;;;;;4.07;2.28;;;13.40;91.80;;;;;;4990738;28;20046;-82
2021/10/07 10:44:27;;;;;;;4.15;2.47;;;13.70;90.70;;;;;;4991548;28;20234;-82
2021/10/07 10:47:08;;;;;;;4.97;2.53;;;13.70;89.60;;;;;;4984151;28;20042;-82
2021/10/07 10:49:51;;;;;;;2.40;2.15;;;13.40;89.20;;;;;;4989889;28;20027;-81
2021/10/07 10:52:30;;;;;;;3.55;3.03;;;13.20;90.50;;;;;;4989500;28;20031;-81
2021/10/07 10:55:12;;;;;;;5.40;2.83;;;13.00;90.20;;;;;;4990698;28;20054;-80
2021/10/07 10:57:50;;;;;;;4.57;3.88;;;12.90;91.10;;;;;;4977243;28;20107;-80
2021/10/07 11:00:28;;;;;;;5.65;3.50;;;13.00;91.10;;;;;;4986651;28;20055;-83
2021/10/07 11:03:26;;;;;;;3.88;3.17;;;13.10;91.00;;;;;;5001412;28;20018;-82
2021/10/07 11:06:04;;;;;;;2.60;2.10;;;13.30;90.90;;;;;;4981754;28;20053;-81
2021/10/07 11:08:52;;;;;;;2.78;2.05;;;13.50;90.90;;;;;;4965354;28;20030;-80
2021/10/07 11:11:36;;;;;;;3.90;2.47;;;13.90;90.10;;;;;;4977199;28;20027;-81
2021/10/07 11:14:02;;;;;;;3.50;2.90;;;14.40;88.10;;;;;;4981542;28;20037;-83
2021/10/07 11:16:29;;;;;;;4.32;2.85;;;14.40;83.70;;;;;;4983625;28;20466;-79
2021/10/07 11:18:55;;;;;;;2.88;1.98;;;14.20;84.50;;;;;;4982969;28;20081;-83
2021/10/07 11:21:22;;;;;;;1.65;1.55;;;14.00;85.20;;;;;;4982304;28;20031;-83
2021/10/07 11:23:54;;;;;;;6.88;2.55;;;14.10;86.10;;;;;;4982271;28;20227;-82
2021/10/07 11:26:22;;;;;;;4.45;3.17;;;14.30;84.60;;;;;;4984821;28;20038;-82
2021/10/07 11:28:49;;;;;;;3.88;1.80;;;14.30;82.90;;;;;;4983530;28;20034;-82
2021/10/07 11:31:20;;;;;;;2.28;1.77;;;14.20;83.80;;;;;;4974777;28;20490;-82
2021/10/07 11:33:51;;;;;;;2.10;1.83;;;14.20;83.10;;;;;;4984615;28;20030;-82
2021/10/07 11:36:22;;;;;;;4.97;1.98;;;14.20;82.30;;;;;;4982159;28;20285;-82
2021/10/07 11:38:50;;;;;;;2.35;2.15;;;13.90;83.30;;;;;;4982875;28;20023;-82
2021/10/07 11:41:20;;;;;;;3.70;2.58;;;13.80;84.40;;;;;;4979876;28;20030;-82
2021/10/07 11:43:47;;;;;;;2.70;2.22;;;13.90;84.40;;;;;;4993755;28;20033;-78
2021/10/07 11:46:18;;;;;;;3.47;2.42;;;14.00;84.50;;;;;;4996378;28;20086;-80
2021/10/07 11:48:55;;;;;;;2.30;1.60;;;14.00;83.80;;;;;;4998198;28;20029;-80
2021/10/07 11:51:24;;;;;;;2.75;1.83;;;14.10;84.00;;;;;;4978437;28;20026;-81
2021/10/07 11:53:52;;;;;;;2.22;2.03;;;14.20;83.60;;;;;;4980811;28;20518;-82
2021/10/07 11:56:22;;;;;;;2.47;2.28;;;14.20;83.20;;;;;;5012958;23;20089;-78
2021/10/07 11:58:51;;;;;;;2.63;2.05;;;14.10;82.40;;;;;;4998409;28;20386;-79
2021/10/07 12:01:17;;;;;;;4.15;2.08;;;14.10;83.20;;;;;;5008952;28;20022;-79
2021/10/07 12:03:43;;;;;;;6.55;2.40;;;14.10;82.40;;;;;;5013397;28;20050;-79
2021/10/07 12:06:12;;;;;;;4.25;2.30;;;14.00;81.20;;;;;;4994354;28;20030;-79
2021/10/07 12:08:42;;;;;;;2.78;1.95;;;13.80;82.80;;;;;;4978874;28;20022;-79
2021/10/07 12:11:24;;;;;;;2.75;1.85;;;13.60;84.20;;;;;;4983096;28;20126;-79
2021/10/07 12:13:59;;;;;;;1.35;1.20;;;13.60;83.90;;;;;;4986742;28;20031;-79
2021/10/07 12:16:27;;;;;;;4.85;1.98;;;13.60;84.20;;;;;;4978680;28;20107;-79
2021/10/07 12:18:57;;;;;;;2.45;1.75;;;13.70;83.80;;;;;;4978253;28;20030;-79
2021/10/07 12:21:24;;;;;;;2.60;2.40;;;13.80;83.70;;;;;;4980163;28;20367;-80
2021/10/07 12:24:09;;;;;;;4.25;2.13;;;14.00;82.10;;;;;;4997881;28;20030;-79
2021/10/07 12:26:43;;;;;;;2.40;2.20;;;13.90;82.80;;;;;;4997117;28;20031;-79
2021/10/07 12:29:16;;;;;;;6.40;2.00;;;13.90;83.70;;;;;;4998005;28;20031;-79
2021/10/07 12:32:03;;;;;;;1.50;1.40;;;14.00;84.20;;;;;;5010920;28;20344;-79
2021/10/07 12:34:36;;;;;;;2.15;2.00;;;14.10;82.90;;;;;;4978800;28;20391;-80
2021/10/07 12:37:05;;;;;;;5.18;1.90;;;14.10;80.60;;;;;;4984813;28;20034;-79
2021/10/07 12:39:37;;;;;;;2.47;1.83;;;14.20;80.20;;;;;;4997264;28;20019;-79
2021/10/07 12:42:07;;;;;;;;;;;14.00;80.30;;;;;;4989365;28;20027;-78
2021/10/07 12:44:53;;;;;;;3.25;1.42;;;13.90;81.30;;;;;;4995837;28;19921;-79
2021/10/07 12:47:20;;;;;;;2.88;1.55;;;13.70;82.20;;;;;;4995575;28;20046;-80
2021/10/07 12:49:49;;;;;;;2.33;1.17;;;13.60;82.10;;;;;;4995896;28;20077;-79
2021/10/07 12:52:24;;;;;;;2.92;1.02;;;13.50;83.00;;;;;;4976896;28;20042;-79
2021/10/07 12:54:55;;;;;;;3.15;1.33;;;13.50;81.70;;;;;;4992755;28;20034;-79
2021/10/07 12:57:37;;;;;;;2.03;0.90;;;13.60;82.60;;;;;;4995846;28;20502;-79
2021/10/07 13:00:06;;;;;;;0.80;0.80;;;13.80;83.00;;;;;;4993732;28;20034;-79
2021/10/07 13:02:33;;;;;;;4.18;0.98;;;14.10;82.10;;;;;;5000311;28;20072;-79
2021/10/07 13:05:24;;;;;;;3.63;1.20;;;14.30;79.50;;;;;;4984097;28;20034;-79
2021/10/07 13:07:57;;;;;;;8.73;1.80;;;14.30;78.70;;;;;;4984140;28;20038;-79
2021/10/07 13:10:24;;;;;;;4.65;1.00;;;14.30;79.10;;;;;;4986438;28;20039;-79
2021/10/07 13:12:51;;;;;;;2.38;0.60;;;14.40;78.50;;;;;;4997137;28;20022;-79
2021/10/07 13:15:17;;;;;;;2.40;0.80;;;14.50;78.40;;;;;;4995074;28;20038;-79
2021/10/07 13:17:44;;;;;;;1.60;0.90;;;14.90;77.90;;;;;;4996173;28;20022;-79
2021/10/07 13:20:11;;;;;;;0.85;0.70;;;15.20;76.40;;;;;;4995119;28;20026;-79
2021/10/07 13:22:38;;;;;;;1.15;0.73;;;15.00;75.90;;;;;;4996339;28;20054;-78
2021/10/07 13:25:11;;;;;;;2.47;0.80;;;14.90;75.30;;;;;;4993772;28;20391;-79
2021/10/07 13:27:37;;;;;;;1.23;0.80;;;14.70;73.80;;;;;;4975860;28;20027;-79
2021/10/07 13:30:05;;;;;;;2.90;0.82;;;14.30;76.20;;;;;;4983798;28;20064;-79
2021/10/07 13:32:31;;;;;;;0.95;0.80;;;14.10;77.80;;;;;;5008304;28;20260;-79
2021/10/07 13:34:57;;;;;;;1.95;0.80;;;13.90;77.80;;;;;;5012949;28;20042;-79
2021/10/07 13:37:23;;;;;;;2.95;1.00;;;13.80;77.10;;;;;;4980234;28;20130;-78
2021/10/07 13:39:49;;;;;;;1.73;1.00;;;13.60;76.70;;;;;;4979086;28;20023;-79
2021/10/07 13:42:15;;;;;;;3.35;1.30;;;13.40;77.90;;;;;;4979517;28;20365;-80
2021/10/07 13:44:41;;;;;;;1.92;1.02;;;13.30;79.60;;;;;;4982672;28;20118;-79
2021/10/07 13:47:07;;;;;;;3.50;0.70;;;13.30;79.80;;;;;;4987865;28;20109;-78
2021/10/07 13:49:33;;;;;;;1.35;0.90;;;13.30;80.40;;;;;;4978980;28;20034;-78
2021/10/07 13:52:01;;;;;;;1.85;0.75;;;13.30;80.60;;;;;;4979247;28;20019;-79
2021/10/07 13:54:27;;;;;;;2.35;1.30;;;13.30;80.70;;;;;;4985237;28;20039;-78
2021/10/07 13:56:53;;;;;;;3.22;0.90;;;13.30;79.50;;;;;;4985804;28;20074;-78
2021/10/07 13:59:18;;;;;;;3.08;0.85;;;13.30;79.50;;;;;;4980864;28;20019;-78
2021/10/07 14:01:44;;;;;;;2.47;0.93;;;13.30;79.90;;;;;;5009341;28;20076;-78